Time;durP1;ratioP1;P1;durP2;ratioP2;P2;SDS_P1;SDS_P2;PMS_P1;PMS_P2;Temp;Humidity;BMP_temperature;BMP_pressure;BME280_temperature;BME280_humidity;BME280_pressure;Samples;Min_cycle;Max_cycle;Signal;HPM_P1;HPM_P2
2022/09/23 00:01:40;;;;;;;20.25;10.53;;;;;;;4.35;77.38;100805.08;2135911;81;21020;-82
2022/09/23 00:04:41;;;;;;;20.45;8.20;;;;;;;4.32;77.68;100807.93;2122855;82;21064;-82
2022/09/23 00:07:43;;;;;;;16.27;8.50;;;;;;;4.32;77.74;100803.98;2193515;80;21033;-82
2022/09/23 00:10:44;;;;;;;18.57;8.83;;;;;;;4.30;77.46;100801.10;2193460;80;21598;-82
2022/09/23 00:13:48;;;;;;;14.30;7.83;;;;;;;4.23;77.33;100803.34;2184632;80;21023;-82
2022/09/23 00:16:50;;;;;;;15.72;8.73;;;;;;;4.19;77.27;100801.38;2124591;81;21497;-82
2022/09/23 00:19:51;;;;;;;17.15;7.90;;;;;;;4.16;77.50;100796.34;2146339;82;21113;-82
2022/09/23 00:22:52;;;;;;;14.23;8.83;;;;;;;4.14;77.39;100796.09;2111605;83;21030;-82
2022/09/23 00:25:58;;;;;;;14.60;6.85;;;;;;;4.14;77.49;100790.84;2113164;83;21089;-82
2022/09/23 00:29:00;;;;;;;11.90;8.00;;;;;;;4.11;77.49;100785.80;2118825;83;21623;-83
2022/09/23 00:32:02;;;;;;;22.42;11.83;;;;;;;4.07;77.44;100781.25;2105577;83;21045;-82
2022/09/23 00:35:04;;;;;;;22.70;11.85;;;;;;;4.01;77.78;100783.84;2107831;83;21003;-83
2022/09/23 00:38:07;;;;;;;17.50;10.80;;;;;;;3.88;77.93;100784.80;2139209;81;21018;-82
2022/09/23 00:41:08;;;;;;;19.02;10.03;;;;;;;3.81;78.08;100778.67;2111577;82;21133;-82
2022/09/23 00:44:41;;;;;;;15.40;8.90;;;;;;;3.82;78.05;100782.97;2099008;83;21027;-82
2022/09/23 00:52:02;;;;;;;20.48;8.68;;;;;;;3.81;78.05;100780.47;2115003;82;21105;-82
2022/09/23 00:55:08;;;;;;;13.68;8.85;;;;;;;3.81;77.92;100780.47;2122298;81;21738;-82
2022/09/23 00:58:13;;;;;;;12.07;8.30;;;;;;;3.79;78.00;100774.47;2098127;82;21557;-84
2022/09/23 01:01:14;;;;;;;14.98;8.73;;;;;;;3.78;78.17;100771.49;2105489;82;21061;-82
2022/09/23 01:04:18;;;;;;;17.87;8.30;;;;;;;3.79;78.34;100764.80;2109512;83;21112;-83
2022/09/23 01:07:20;;;;;;;17.92;9.45;;;;;;;3.81;78.19;100763.40;2110354;83;21074;-83
2022/09/23 01:10:22;;;;;;;19.27;9.38;;;;;;;3.79;78.27;100769.22;2103705;83;21521;-83
2022/09/23 01:13:48;;;;;;;18.40;9.28;;;;;;;3.77;78.31;100758.84;2117068;83;21304;-82
2022/09/23 01:17:26;;;;;;;22.95;11.53;;;;;;;3.74;78.17;100764.76;2111628;82;21073;-82
2022/09/23 01:20:50;;;;;;;35.65;13.22;;;;;;;3.69;78.31;100762.92;2112123;83;21000;-82
2022/09/23 01:24:29;;;;;;;23.80;11.28;;;;;;;3.65;78.65;100761.47;2109311;83;21041;-82
2022/09/23 01:27:48;;;;;;;32.15;12.30;;;;;;;3.69;78.74;100762.92;2093461;83;21618;-83
2022/09/23 01:31:03;;;;;;;27.48;11.50;;;;;;;3.64;78.52;100758.02;2132448;81;21072;-82
2022/09/23 01:34:16;;;;;;;26.15;11.70;;;;;;;3.63;78.58;100752.37;2134208;82;21533;-83
2022/09/23 01:37:28;;;;;;;23.55;11.10;;;;;;;3.63;78.60;100750.23;2133648;81;21160;-82
2022/09/23 01:40:50;;;;;;;22.95;10.70;;;;;;;3.61;78.77;100745.59;2094834;82;21041;-82
2022/09/23 01:44:03;;;;;;;22.17;11.12;;;;;;;3.62;78.78;100744.63;2103155;83;21058;-81
2022/09/23 01:47:16;;;;;;;19.30;9.40;;;;;;;3.59;78.96;100745.20;2114962;83;21117;-82
2022/09/23 01:53:59;;;;;;;16.77;9.90;;;;;;;3.65;79.24;100735.23;2101701;83;21089;-83
2022/09/23 01:57:11;;;;;;;14.87;8.45;;;;;;;3.65;79.20;100739.16;2104755;83;21065;-82
2022/09/23 02:00:16;;;;;;;27.50;12.07;;;;;;;3.62;79.03;100741.52;2141777;81;21027;-80
2022/09/23 02:03:25;;;;;;;38.10;15.23;;;;;;;3.55;79.01;100743.75;2121519;82;21007;-82
2022/09/23 02:06:33;;;;;;;36.88;12.82;;;;;;;3.46;79.16;100745.67;2121628;81;21624;-83
2022/09/23 02:09:39;;;;;;;26.95;13.18;;;;;;;3.33;79.19;100743.07;2144872;81;21005;-83
2022/09/23 02:12:46;;;;;;;26.12;11.48;;;;;;;3.21;79.43;100745.67;2147016;81;21076;-80
2022/09/23 02:15:51;;;;;;;20.30;10.28;;;;;;;3.05;79.92;100749.82;2140675;81;21034;-82
2022/09/23 02:19:00;;;;;;;25.43;10.82;;;;;;;2.89;79.96;100756.55;2132914;81;20998;-82
2022/09/23 02:22:25;;;;;;;27.67;11.68;;;;;;;2.88;80.42;100749.64;2091164;83;21083;-82
2022/09/23 02:25:32;;;;;;;28.75;10.88;;;;;;;2.85;80.48;100759.02;2106129;82;21486;-82
2022/09/23 02:29:08;;;;;;;25.32;10.93;;;;;;;2.81;80.63;100756.21;2108866;81;21000;-82
2022/09/23 02:32:21;;;;;;;18.23;11.05;;;;;;;2.85;80.77;100753.30;2105974;82;21037;-82
2022/09/23 02:35:43;;;;;;;17.87;10.53;;;;;;;2.90;80.97;100753.84;2102171;83;21034;-83
2022/09/23 02:38:51;;;;;;;21.85;11.80;;;;;;;2.96;80.64;100751.72;2192337;79;21476;-81
2022/09/23 02:42:04;;;;;;;22.85;11.28;;;;;;;2.98;80.57;100745.91;2187034;80;21057;-82
2022/09/23 02:45:06;;;;;;;18.42;11.75;;;;;;;2.99;80.51;100747.62;2177096;80;21103;-82
2022/09/23 02:48:21;;;;;;;23.47;12.23;;;;;;;3.02;80.72;100748.24;2198229;80;21120;-82
2022/09/23 02:51:24;;;;;;;20.15;11.00;;;;;;;3.05;80.68;100749.34;2182449;80;21592;-81
2022/09/23 02:54:28;;;;;;;19.65;10.90;;;;;;;3.01;80.51;100751.78;2187332;80;22317;-82
2022/09/23 02:57:29;;;;;;;18.98;11.38;;;;;;;3.01;80.50;100746.54;2184294;80;21073;-82
2022/09/23 03:00:44;;;;;;;27.02;11.25;;;;;;;2.98;80.37;100742.82;2187243;80;21049;-82
2022/09/23 03:03:54;;;;;;;25.45;10.65;;;;;;;2.99;80.34;100747.14;2168703;80;21160;-82
2022/09/23 03:07:23;;;;;;;19.80;11.38;;;;;;;2.96;80.29;100749.10;2170769;80;21445;-82
2022/09/23 03:11:03;;;;;;;28.17;12.03;;;;;;;2.95;80.17;100748.75;2190538;79;21096;-82
2022/09/23 03:14:37;;;;;;;22.52;11.93;;;;;;;2.93;80.21;100738.37;2092908;83;21097;-83
2022/09/23 03:17:46;;;;;;;21.87;11.50;;;;;;;2.90;80.34;100738.11;2088824;83;21620;-82
2022/09/23 03:21:02;;;;;;;25.40;12.13;;;;;;;2.88;80.38;100732.59;2112865;82;21054;-82
2022/09/23 03:24:06;;;;;;;22.05;10.35;;;;;;;2.84;80.31;100737.66;2111662;81;21060;-81
2022/09/23 03:27:18;;;;;;;23.30;11.53;;;;;;;2.79;80.27;100737.98;2126291;82;21027;-82
2022/09/23 03:30:20;;;;;;;23.10;10.60;;;;;;;2.75;80.29;100723.86;2128309;82;21010;-82
2022/09/23 03:33:26;;;;;;;17.30;9.18;;;;;;;2.71;80.38;100728.47;2127219;81;21036;-82
2022/09/23 03:36:50;;;;;;;13.75;8.45;;;;;;;2.71;80.31;100717.16;2113167;83;21112;-82
2022/09/23 03:40:00;;;;;;;17.12;10.50;;;;;;;2.72;80.21;100717.52;2119297;82;21133;-83
2022/09/23 03:43:03;;;;;;;17.20;9.68;;;;;;;2.59;80.28;100718.78;2106791;83;21098;-83
2022/09/23 03:46:07;;;;;;;17.98;9.83;;;;;;;2.54;80.45;100725.66;2106976;83;21071;-82
2022/09/23 03:49:13;;;;;;;21.15;9.20;;;;;;;2.52;80.28;100723.59;2091751;83;21061;-83
2022/09/23 03:52:16;;;;;;;19.30;9.90;;;;;;;2.46;80.36;100719.59;2119770;81;21074;-83
2022/09/23 03:55:19;;;;;;;19.23;10.13;;;;;;;2.43;80.60;100718.48;2127151;81;21097;-82
2022/09/23 03:58:20;;;;;;;14.10;9.00;;;;;;;2.36;80.67;100720.28;2109317;82;21063;-83
2022/09/23 04:01:21;;;;;;;;;;;;;;;2.36;80.73;100725.05;2134053;82;21141;-83
2022/09/23 04:04:25;;;;;;;14.78;8.53;;;;;;;2.38;80.54;100719.73;2112441;82;20172;-84
2022/09/23 04:07:25;;;;;;;17.75;8.30;;;;;;;2.38;80.66;100715.80;2120743;82;21050;-83
2022/09/23 04:10:26;;;;;;;17.70;9.78;;;;;;;2.39;80.41;100717.47;2125455;82;21095;-83
2022/09/23 04:13:28;;;;;;;15.65;9.68;;;;;;;2.36;80.42;100713.27;2119974;82;21104;-83
2022/09/23 04:16:29;;;;;;;13.48;8.40;;;;;;;2.36;80.46;100716.36;2085772;83;21118;-83
2022/09/23 04:19:30;;;;;;;17.60;9.68;;;;;;;2.35;80.24;100719.45;2120622;82;21034;-83
2022/09/23 04:22:33;;;;;;;16.67;9.58;;;;;;;2.34;80.19;100720.88;2116843;81;21191;-83
2022/09/23 04:25:35;;;;;;;16.73;9.63;;;;;;;2.32;80.18;100711.80;2169993;80;21077;-83
2022/09/23 04:28:36;;;;;;;15.23;9.45;;;;;;;2.26;80.28;100719.22;2126719;82;21008;-83
2022/09/23 04:31:38;;;;;;;22.98;10.15;;;;;;;2.23;80.37;100715.02;2126362;81;21097;-83
2022/09/23 04:34:39;;;;;;;17.30;9.50;;;;;;;2.22;80.49;100716.80;2134222;82;21496;-83
2022/09/23 04:37:41;;;;;;;16.70;8.63;;;;;;;2.12;80.39;100713.55;2132927;82;21087;-83
2022/09/23 04:40:42;;;;;;;14.87;8.35;;;;;;;2.07;80.39;100715.63;2097443;83;21075;-84
2022/09/23 04:43:43;;;;;;;15.98;8.73;;;;;;;2.06;80.43;100710.03;2129114;82;21539;-83
2022/09/23 04:46:46;;;;;;;16.95;10.00;;;;;;;2.06;80.36;100709.55;2144181;81;21058;-83
2022/09/23 04:49:48;;;;;;;20.80;10.05;;;;;;;2.05;80.39;100713.09;2123500;82;21623;-83
2022/09/23 04:52:49;;;;;;;15.80;10.03;;;;;;;2.09;80.46;100723.75;2111666;82;21047;-83
2022/09/23 04:55:51;;;;;;;21.97;14.15;;;;;;;2.08;80.33;100723.36;2132579;81;21113;-80
2022/09/23 04:58:53;;;;;;;16.80;11.53;;;;;;;2.08;80.58;100720.74;2129924;81;21056;-84
2022/09/23 05:01:55;;;;;;;15.43;10.43;;;;;;;2.10;80.65;100726.73;2131278;81;21026;-83
2022/09/23 05:04:57;;;;;;;32.38;17.45;;;;;;;2.13;80.58;100725.70;2122926;81;21031;-83
2022/09/23 05:07:58;;;;;;;26.60;14.75;;;;;;;2.15;80.87;100729.06;2135227;81;21092;-83
2022/09/23 05:11:05;;;;;;;32.78;17.48;;;;;;;2.24;81.18;100724.54;2124763;81;21108;-82
2022/09/23 05:14:07;;;;;;;33.18;17.00;;;;;;;2.44;81.35;100720.63;2120609;81;21069;-83
2022/09/23 05:17:08;;;;;;;25.82;14.30;;;;;;;2.67;81.40;100721.73;2117426;82;21636;-82
2022/09/23 05:20:12;;;;;;;28.92;16.60;;;;;;;2.89;81.25;100723.30;2118105;82;21008;-80
2022/09/23 05:23:16;;;;;;;34.53;16.23;;;;;;;3.09;81.26;100718.50;2117254;83;21109;-77
2022/09/23 05:26:16;;;;;;;28.98;15.08;;;;;;;3.40;81.23;100715.93;2112072;83;21058;-73
2022/09/23 05:29:17;;;;;;;29.07;15.05;;;;;;;3.76;81.28;100723.50;2121233;82;21476;-77
2022/09/23 05:32:19;;;;;;;26.23;14.50;;;;;;;4.14;81.29;100723.86;2139387;81;21054;-79
2022/09/23 05:35:21;;;;;;;24.87;12.78;;;;;;;4.55;81.22;100723.48;2139192;81;21030;-79
2022/09/23 05:38:22;;;;;;;26.97;17.07;;;;;;;4.88;80.84;100721.92;2146456;81;21113;-79
2022/09/23 05:41:25;;;;;;;21.85;12.75;;;;;;;5.10;80.53;100718.52;2144991;81;21026;-80
2022/09/23 05:44:26;;;;;;;23.02;11.85;;;;;;;5.38;80.40;100725.14;2137737;81;21251;-80
2022/09/23 05:47:30;;;;;;;21.40;10.93;;;;;;;5.66;80.48;100729.09;2132017;81;21005;-85
2022/09/23 05:50:30;;;;;;;18.20;11.25;;;;;;;5.91;80.17;100720.55;2137443;81;21062;-80
2022/09/23 05:53:31;;;;;;;16.73;11.38;;;;;;;6.17;79.84;100711.94;2142522;81;21626;-81
2022/09/23 05:56:34;;;;;;;21.62;11.43;;;;;;;6.39;79.54;100719.77;2120904;82;21027;-80
2022/09/23 05:59:38;;;;;;;21.37;11.68;;;;;;;6.70;79.49;100718.09;2089963;83;21081;-79
2022/09/23 06:02:39;;;;;;;20.02;12.05;;;;;;;6.87;78.87;100721.10;2132677;82;21117;-79
2022/09/23 06:05:41;;;;;;;20.17;11.73;;;;;;;6.99;78.66;100714.81;2134379;81;21884;-84
2022/09/23 06:08:45;;;;;;;15.75;10.55;;;;;;;7.16;78.60;100720.82;2122865;82;21082;-80
2022/09/23 06:11:47;;;;;;;14.58;9.35;;;;;;;7.37;78.51;100716.83;2103479;83;21026;-74
2022/09/23 06:14:49;;;;;;;13.65;8.23;;;;;;;7.75;78.27;100709.22;2112266;82;21070;-80
2022/09/23 06:17:50;;;;;;;12.47;8.43;;;;;;;8.08;77.85;100710.21;2100223;83;21011;-85
2022/09/23 06:20:54;;;;;;;15.60;9.43;;;;;;;8.47;77.70;100709.44;2111584;83;21618;-79
2022/09/23 06:23:59;;;;;;;13.60;9.33;;;;;;;8.71;77.38;100717.80;2179590;80;21039;-78
2022/09/23 06:27:02;;;;;;;16.42;10.70;;;;;;;8.96;77.16;100717.70;2138811;81;20999;-78
2022/09/23 06:30:05;;;;;;;17.55;11.70;;;;;;;9.49;77.49;100716.80;2089199;82;21579;-79
2022/09/23 06:33:06;;;;;;;29.50;17.80;;;;;;;10.01;76.72;100711.81;2124946;82;21073;-79
2022/09/23 06:36:09;;;;;;;23.92;16.37;;;;;;;11.14;76.08;100717.84;2148253;81;21110;-78
2022/09/23 06:39:10;;;;;;;27.10;17.17;;;;;;;11.14;76.08;100717.84;2144044;81;21042;-77
2022/09/23 06:42:12;;;;;;;27.60;21.60;;;;;;;11.66;75.38;100720.97;2132399;81;21077;-77
2022/09/23 06:45:15;;;;;;;37.05;27.62;;;;;;;12.04;75.10;100722.30;2120218;82;21517;-78
2022/09/23 06:48:17;;;;;;;28.73;22.35;;;;;;;12.28;73.87;100718.06;2118670;82;20986;-77
2022/09/23 06:51:18;;;;;;;23.95;19.15;;;;;;;12.58;73.30;100721.08;2112563;83;21143;-78
2022/09/23 06:54:19;;;;;;;19.50;14.30;;;;;;;12.85;73.00;100718.60;2106471;83;21080;-77
2022/09/23 06:57:20;;;;;;;14.98;11.53;;;;;;;13.27;72.92;100715.75;2130681;81;21017;-77
2022/09/23 07:00:21;;;;;;;13.00;10.43;;;;;;;13.69;71.92;100715.97;2140504;81;21061;-77
2022/09/23 07:03:23;;;;;;;11.53;9.43;;;;;;;13.99;71.61;100716.98;2153616;81;21075;-78
2022/09/23 07:06:25;;;;;;;14.25;11.08;;;;;;;14.43;71.02;100716.92;2126900;81;21037;-77
2022/09/23 07:09:26;;;;;;;14.83;10.58;;;;;;;14.92;70.29;100712.06;2135811;81;21050;-79
2022/09/23 07:12:28;;;;;;;14.95;9.88;;;;;;;15.18;69.45;100712.98;2127776;82;21034;-77
2022/09/23 07:15:30;;;;;;;17.92;11.48;;;;;;;15.16;68.73;100718.19;2131422;81;21042;-77
2022/09/23 07:18:33;;;;;;;15.98;9.83;;;;;;;15.35;68.50;100718.17;2130983;81;21084;-78
2022/09/23 07:21:35;;;;;;;21.37;12.78;;;;;;;15.55;68.61;100715.77;2125081;82;21058;-77
2022/09/23 07:24:37;;;;;;;24.77;18.55;;;;;;;15.90;67.81;100716.36;2128429;81;21561;-84
2022/09/23 07:27:38;;;;;;;17.02;11.22;;;;;;;16.02;67.33;100718.07;2097763;81;21161;-78
2022/09/23 07:30:42;;;;;;;13.95;9.68;;;;;;;16.18;66.60;100710.81;2123428;83;20995;-78
2022/09/23 07:33:43;;;;;;;14.50;10.60;;;;;;;16.46;66.23;100711.73;2130251;81;21046;-77
2022/09/23 07:36:44;;;;;;;15.05;10.23;;;;;;;16.65;65.56;100715.63;2125231;82;21626;-78
2022/09/23 07:39:46;;;;;;;10.90;9.13;;;;;;;16.72;65.40;100718.36;2127022;82;21054;-77
2022/09/23 07:42:47;;;;;;;12.47;9.63;;;;;;;16.85;64.60;100721.20;2128980;81;21056;-78
2022/09/23 07:45:48;;;;;;;12.23;9.40;;;;;;;16.97;64.89;100717.47;2148543;81;21050;-77
2022/09/23 07:48:49;;;;;;;13.60;9.05;;;;;;;17.18;64.71;100717.96;2141446;82;21478;-78
2022/09/23 07:51:51;;;;;;;12.40;9.20;;;;;;;17.43;63.67;100721.84;2118048;81;21014;-77
2022/09/23 07:54:53;;;;;;;11.48;8.35;;;;;;;17.62;62.94;100719.45;2144374;81;21533;-77
2022/09/23 07:57:54;;;;;;;14.45;9.68;;;;;;;17.58;62.64;100726.26;2109723;82;21073;-77
2022/09/23 08:01:03;;;;;;;14.33;10.20;;;;;;;17.66;62.39;100718.05;2106840;82;21007;-78
2022/09/23 08:04:18;;;;;;;13.58;10.35;;;;;;;17.94;62.30;100715.31;2093362;83;21089;-78
2022/09/23 08:07:19;;;;;;;13.20;9.10;;;;;;;18.21;62.18;100714.87;2131236;82;21023;-77
2022/09/23 08:10:20;;;;;;;11.00;8.50;;;;;;;18.47;61.55;100710.59;2109829;82;21112;-79
2022/09/23 08:13:22;;;;;;;10.48;8.45;;;;;;;18.73;61.06;100709.81;2113329;83;21070;-77
2022/09/23 08:16:23;;;;;;;11.08;8.25;;;;;;;18.96;60.14;100700.84;2112139;83;21492;-77
2022/09/23 08:19:24;;;;;;;9.38;7.72;;;;;;;19.06;59.89;100696.38;2114955;81;21038;-77
2022/09/23 08:22:26;;;;;;;10.32;8.28;;;;;;;19.16;59.33;100690.06;2169921;80;21013;-77
2022/09/23 08:25:27;;;;;;;11.35;7.70;;;;;;;19.20;58.52;100684.59;2174693;80;21041;-81
2022/09/23 08:28:30;;;;;;;11.45;7.72;;;;;;;19.33;58.77;100682.38;2178912;80;21010;-77
2022/09/23 08:31:31;;;;;;;9.95;6.53;;;;;;;19.45;57.60;100670.44;2141278;82;21020;-77
2022/09/23 08:34:34;;;;;;;8.88;6.75;;;;;;;19.33;56.69;100676.99;2095735;83;21082;-77
2022/09/23 08:37:38;;;;;;;11.25;7.03;;;;;;;19.17;56.70;100676.91;2135108;82;21022;-78
2022/09/23 08:40:46;;;;;;;11.80;6.75;;;;;;;19.28;56.03;100671.41;2108818;81;21109;-77
2022/09/23 08:43:52;;;;;;;8.63;5.85;;;;;;;19.20;55.98;100671.14;2123189;82;21067;-78
2022/09/23 08:47:11;;;;;;;6.72;5.87;;;;;;;19.40;55.63;100667.55;2112686;83;21165;-79
2022/09/23 08:50:17;;;;;;;7.20;5.30;;;;;;;19.64;55.65;100669.55;2136196;81;21570;-77
2022/09/23 08:53:35;;;;;;;6.67;4.95;;;;;;;19.86;55.03;100666.59;2103316;81;21098;-76
2022/09/23 08:56:38;;;;;;;7.75;5.28;;;;;;;20.04;52.58;100661.30;2136335;81;21095;-78
2022/09/23 08:59:44;;;;;;;9.55;5.42;;;;;;;19.94;53.79;100662.31;2113482;82;21064;-77
2022/09/23 09:02:46;;;;;;;5.35;4.80;;;;;;;20.06;53.69;100661.92;2139797;81;21611;-75
2022/09/23 09:05:49;;;;;;;5.22;4.67;;;;;;;20.27;53.04;100663.97;2099761;82;21096;-79
2022/09/23 09:08:55;;;;;;;9.65;6.03;;;;;;;20.19;52.14;100658.83;2110371;82;21046;-77
2022/09/23 09:12:23;;;;;;;6.50;4.83;;;;;;;20.20;52.62;100665.89;2115556;83;21116;-76
2022/09/23 09:15:26;;;;;;;8.63;5.40;;;;;;;20.33;51.95;100669.33;2164901;80;21030;-76
2022/09/23 09:18:31;;;;;;;5.85;4.10;;;;;;;20.31;51.70;100667.37;2171890;80;21037;-76
2022/09/23 09:21:37;;;;;;;5.78;4.20;;;;;;;20.30;50.83;100672.47;2175550;80;21064;-77
2022/09/23 09:24:42;;;;;;;5.17;4.00;;;;;;;20.24;50.23;100669.27;2187343;80;20991;-77
2022/09/23 09:27:47;;;;;;;5.78;4.33;;;;;;;20.23;50.78;100670.84;2135497;81;20996;-75
2022/09/23 09:31:02;;;;;;;7.05;4.90;;;;;;;20.28;50.94;100666.45;2139738;81;21105;-76
2022/09/23 09:34:14;;;;;;;6.55;4.25;;;;;;;20.32;50.54;100665.49;2143903;81;21116;-86
2022/09/23 09:37:34;;;;;;;6.65;3.70;;;;;;;20.42;50.40;100660.46;2148261;81;21587;-77
2022/09/23 09:40:40;;;;;;;6.00;3.52;;;;;;;20.48;50.05;100659.58;2133796;81;21077;-77
2022/09/23 09:43:59;;;;;;;4.50;2.90;;;;;;;20.60;49.48;100662.42;2141221;81;21074;-77
2022/09/23 09:47:15;;;;;;;4.22;2.98;;;;;;;20.58;49.03;100659.95;2106527;83;21616;-78
2022/09/23 09:50:52;;;;;;;4.65;3.15;;;;;;;20.62;48.84;100655.48;2133775;81;21074;-77
2022/09/23 09:53:55;;;;;;;3.83;3.33;;;;;;;20.81;48.79;100655.83;2146643;81;21124;-77
2022/09/23 09:56:57;;;;;;;4.40;3.08;;;;;;;20.93;48.43;100647.31;2094285;83;21503;-77
2022/09/23 10:00:20;;;;;;;4.22;3.37;;;;;;;20.48;48.13;100647.98;2109703;82;21066;-77
2022/09/23 10:03:42;;;;;;;3.47;3.10;;;;;;;20.23;47.99;100650.64;2112985;82;21623;-77
2022/09/23 10:06:46;;;;;;;3.67;2.80;;;;;;;19.96;47.86;100648.09;2131950;82;21058;-77
2022/09/23 10:09:50;;;;;;;4.00;3.05;;;;;;;19.52;47.79;100643.00;2133481;82;21675;-76
2022/09/23 10:12:52;;;;;;;5.55;3.25;;;;;;;19.12;48.20;100648.98;2125685;82;21042;-77
2022/09/23 10:15:55;;;;;;;4.10;3.17;;;;;;;18.60;48.54;100650.97;2128698;82;21034;-77
2022/09/23 10:18:59;;;;;;;4.83;3.30;;;;;;;18.29;49.84;100647.54;2122017;82;21026;-76
2022/09/23 10:22:09;;;;;;;5.12;2.90;;;;;;;18.00;50.07;100649.25;2118389;82;21082;-77
2022/09/23 10:25:20;;;;;;;6.08;2.65;;;;;;;17.80;50.38;100643.82;2114843;82;21803;-83
2022/09/23 10:28:45;;;;;;;6.10;3.12;;;;;;;17.84;50.08;100643.20;2120777;82;21088;-77
2022/09/23 10:31:46;;;;;;;4.28;2.40;;;;;;;17.75;50.10;100639.02;2149376;81;21363;-76
2022/09/23 10:35:12;;;;;;;5.85;2.40;;;;;;;17.64;50.07;100641.75;2136772;81;21081;-79
2022/09/23 10:38:13;;;;;;;3.58;2.60;;;;;;;17.46;50.22;100629.41;2126303;81;21033;-84
2022/09/23 10:49:15;;;;;;;3.58;3.02;;;;;;;17.10;50.71;100625.09;2139007;81;21501;-77
2022/09/23 10:52:27;;;;;;;5.35;3.22;;;;;;;17.10;50.98;100618.91;2131711;81;21104;-77
2022/09/23 10:55:46;;;;;;;3.98;3.00;;;;;;;17.07;51.17;100618.78;2131116;81;21031;-78
2022/09/23 10:59:29;;;;;;;5.22;3.05;;;;;;;16.99;51.13;100611.72;2130552;81;21663;-78
2022/09/23 11:03:16;;;;;;;5.20;2.95;;;;;;;17.01;51.33;100611.02;2115417;81;21090;-77
2022/09/23 11:06:44;;;;;;;3.58;2.70;;;;;;;17.08;51.02;100606.20;2106566;82;21085;-77
2022/09/23 11:09:59;;;;;;;3.37;2.75;;;;;;;17.37;50.91;100608.64;2142642;81;21065;-78
2022/09/23 11:13:24;;;;;;;5.55;2.87;;;;;;;17.62;51.20;100594.16;2116639;81;21580;-79
2022/09/23 11:16:37;;;;;;;2.45;2.00;;;;;;;18.06;50.64;100590.18;2129793;81;21092;-77
2022/09/23 11:20:08;;;;;;;2.62;1.60;;;;;;;18.42;49.98;100582.78;2139832;81;21026;-77
2022/09/23 11:23:39;;;;;;;1.62;1.50;;;;;;;18.46;48.97;100582.66;2132007;82;22310;-77
2022/09/23 11:26:58;;;;;;;2.33;1.95;;;;;;;18.14;48.28;100573.88;2100425;82;21124;-76
2022/09/23 11:30:13;;;;;;;2.27;1.75;;;;;;;17.83;48.16;100571.77;2082788;82;21868;-84
2022/09/23 11:33:53;;;;;;;2.27;1.65;;;;;;;17.61;48.51;100574.26;2110738;82;21094;-79
2022/09/23 11:37:12;;;;;;;3.20;1.85;;;;;;;17.45;48.88;100567.38;2096634;82;21109;-78
2022/09/23 11:40:26;;;;;;;1.80;1.60;;;;;;;17.33;48.42;100565.80;2118396;82;21078;-78
2022/09/23 11:43:33;;;;;;;1.92;1.30;;;;;;;17.21;48.57;100564.20;2120061;83;21544;-79
2022/09/23 11:46:43;;;;;;;1.65;1.40;;;;;;;17.17;48.70;100559.42;2135448;81;21052;-78
2022/09/23 11:49:56;;;;;;;2.00;1.80;;;;;;;17.01;48.62;100553.38;2124735;81;21626;-79
2022/09/23 11:53:21;;;;;;;2.12;1.55;;;;;;;16.84;48.75;100551.20;2138861;81;22298;-78
2022/09/23 11:56:40;;;;;;;1.47;1.37;;;;;;;16.75;49.15;100539.30;2137938;82;21634;-78
2022/09/23 11:59:46;;;;;;;1.30;1.20;;;;;;;16.68;49.78;100538.41;2122997;81;21545;-79
2022/09/23 12:03:28;;;;;;;1.72;1.00;;;;;;;16.53;49.35;100535.03;2127738;81;21545;-78
2022/09/23 12:06:46;;;;;;;1.87;1.30;;;;;;;16.44;50.78;100534.31;2141740;81;21153;-79
2022/09/23 12:10:03;;;;;;;1.67;1.20;;;;;;;16.36;51.43;100535.83;2143087;81;21073;-77
2022/09/23 12:13:16;;;;;;;6.85;1.40;;;;;;;16.43;51.44;100528.66;2140457;81;21742;-78
2022/09/23 12:16:58;;;;;;;2.10;1.07;;;;;;;16.51;50.71;100525.83;2118788;82;21120;-78
2022/09/23 12:20:22;;;;;;;1.20;1.10;;;;;;;16.50;50.37;100526.87;2083041;82;21137;-78
2022/09/23 12:23:50;;;;;;;1.25;1.00;;;;;;;16.47;49.39;100520.56;2127474;82;21170;-78
2022/09/23 12:26:57;;;;;;;1.37;1.27;;;;;;;16.47;50.00;100519.71;2138618;82;20999;-78
2022/09/23 12:30:15;;;;;;;2.55;1.50;;;;;;;16.52;50.43;100519.44;2127513;82;21093;-78
2022/09/23 12:33:31;;;;;;;1.47;1.35;;;;;;;16.53;51.25;100514.94;2107720;83;21038;-78
2022/09/23 12:36:34;;;;;;;2.95;1.50;;;;;;;16.55;51.13;100511.01;2103442;83;21137;-77
2022/09/23 12:39:38;;;;;;;1.87;1.20;;;;;;;16.58;51.24;100518.68;2102986;82;21583;-77
2022/09/23 12:42:45;;;;;;;5.12;1.55;;;;;;;16.82;49.71;100513.89;2096549;83;21037;-77
2022/09/23 12:45:47;;;;;;;2.17;1.37;;;;;;;16.78;49.42;100513.96;2115257;82;21034;-77
2022/09/23 12:48:57;;;;;;;1.40;1.30;;;;;;;16.85;50.33;100508.14;2111139;83;21042;-77
2022/09/23 12:52:20;;;;;;;2.35;1.20;;;;;;;17.01;49.31;100509.16;2122382;82;21072;-80
2022/09/23 12:55:35;;;;;;;2.08;1.20;;;;;;;17.15;49.08;100506.02;2116420;83;21069;-76
2022/09/23 12:58:44;;;;;;;1.30;1.20;;;;;;;17.27;48.52;100498.22;2095631;81;21052;-78
2022/09/23 13:01:45;;;;;;;3.95;1.42;;;;;;;17.07;48.01;100495.98;2143360;81;21597;-78
2022/09/23 13:08:46;;;;;;;1.02;1.00;;;;;;;17.21;48.31;100484.28;2099753;83;21490;-77
2022/09/23 13:11:49;;;;;;;1.70;0.95;;;;;;;17.48;47.85;100479.30;2124114;82;21051;-76
2022/09/23 13:14:54;;;;;;;3.10;1.30;;;;;;;17.66;47.97;100467.97;2133712;81;21100;-78
2022/09/23 13:18:22;;;;;;;2.37;1.05;;;;;;;17.80;47.32;100466.68;2129608;81;21074;-76
2022/09/23 13:21:48;;;;;;;2.17;1.30;;;;;;;17.94;46.71;100457.59;2080388;84;22256;-77
2022/09/23 13:24:59;;;;;;;2.87;1.42;;;;;;;18.02;46.59;100445.80;2121777;81;21683;-79
2022/09/23 13:28:03;;;;;;;1.22;1.10;;;;;;;18.11;46.20;100437.86;2125760;81;21134;-75
2022/09/23 13:31:15;;;;;;;2.17;1.17;;;;;;;18.18;46.01;100441.88;2132477;81;21093;-78
2022/09/23 13:34:21;;;;;;;3.90;1.12;;;;;;;18.19;45.42;100432.28;2127611;81;21551;-79
2022/09/23 13:37:30;;;;;;;1.10;1.00;;;;;;;18.23;45.35;100433.50;2098974;82;22967;-77
2022/09/23 13:40:32;;;;;;;1.57;1.32;;;;;;;18.14;45.04;100431.55;2141063;82;21054;-77
2022/09/23 13:43:38;;;;;;;4.95;1.50;;;;;;;18.06;45.15;100430.94;2154210;81;21129;-75
2022/09/23 13:46:44;;;;;;;2.75;1.40;;;;;;;18.08;45.22;100423.52;2146654;81;21115;-75
2022/09/23 13:49:46;;;;;;;3.27;1.90;;;;;;;18.08;45.17;100418.14;2138046;81;21586;-76
2022/09/23 13:52:54;;;;;;;3.20;1.90;;;;;;;18.06;44.38;100414.83;2139851;82;21513;-76
2022/09/23 13:56:12;;;;;;;1.30;1.20;;;;;;;18.01;44.89;100414.62;2133663;82;21051;-77
2022/09/23 13:59:24;;;;;;;2.02;1.30;;;;;;;17.98;43.83;100418.55;2096112;83;21070;-77
2022/09/23 14:02:27;;;;;;;1.02;0.93;;;;;;;17.88;43.55;100409.59;2106942;82;21508;-77
2022/09/23 14:05:34;;;;;;;6.15;2.62;;;;;;;17.76;43.75;100407.17;2101976;81;21034;-80
2022/09/23 14:08:39;;;;;;;4.53;1.60;;;;;;;17.68;41.39;100408.72;2133452;82;21426;-77
2022/09/23 14:11:40;;;;;;;2.20;1.00;;;;;;;17.46;42.96;100413.47;2116487;81;21071;-77
2022/09/23 14:14:42;;;;;;;1.92;1.35;;;;;;;17.32;42.91;100404.58;2107268;82;21564;-77
2022/09/23 14:18:05;;;;;;;4.20;1.22;;;;;;;17.29;43.80;100403.64;2104819;81;21104;-75
2022/09/23 14:21:29;;;;;;;1.02;0.93;;;;;;;17.28;43.25;100401.97;2093723;83;21670;-79
2022/09/23 14:24:35;;;;;;;2.33;1.10;;;;;;;17.21;43.38;100402.49;2137628;81;21109;-80
2022/09/23 14:27:38;;;;;;;1.82;1.10;;;;;;;17.12;43.27;100403.69;2139692;81;21089;-78
2022/09/23 14:30:44;;;;;;;2.65;0.98;;;;;;;17.00;43.46;100404.80;2118074;81;21522;-81
2022/09/23 14:33:45;;;;;;;1.10;1.00;;;;;;;16.88;43.56;100404.56;2110387;81;21056;-77
2022/09/23 14:40:14;;;;;;;2.02;1.32;;;;;;;16.76;43.84;100394.08;2095001;81;21058;-79
2022/09/23 14:43:26;;;;;;;2.17;1.30;;;;;;;16.73;44.03;100393.14;2145103;81;20998;-78
2022/09/23 14:46:50;;;;;;;3.87;1.45;;;;;;;16.62;43.78;100381.66;2143866;81;20991;-78
2022/09/23 14:53:23;;;;;;;1.93;1.40;;;;;;;16.55;44.08;100378.94;2099359;82;21024;-79
2022/09/23 14:56:24;;;;;;;1.35;1.25;;;;;;;16.53;44.37;100373.80;2105187;82;21120;-78
2022/09/23 14:59:36;;;;;;;2.52;1.05;;;;;;;16.52;44.31;100373.46;2108159;82;21075;-78